createdAt,value
2019-01-13T00:01:32.957Z,5.5
2019-01-13T00:06:38.034Z,4.8
2019-01-13T00:11:44.046Z,4.9
2019-01-13T00:16:47.995Z,4.5
2019-01-13T00:21:53.893Z,5.7
2019-01-13T00:26:59.446Z,6.3
2019-01-13T00:32:05.141Z,6.2
2019-01-13T00:37:10.171Z,6.6
2019-01-13T00:42:15.773Z,6.5
2019-01-13T00:47:21.148Z,8.2
2019-01-13T00:52:25.278Z,7.5
2019-01-13T00:57:31.244Z,6.4
2019-01-13T01:02:35.391Z,6.6
2019-01-13T01:07:39.605Z,6.3
2019-01-13T01:12:45.500Z,7.7
2019-01-13T01:17:51.402Z,5.2
2019-01-13T01:22:56.484Z,5.3
2019-01-13T01:28:01.626Z,6.6
2019-01-13T01:33:06.720Z,6.3
2019-01-13T01:38:13.716Z,5.2
2019-01-13T01:43:19.528Z,5
2019-01-13T01:48:25.068Z,5.9
2019-01-13T01:53:31.271Z,6.4
2019-01-13T01:58:36.688Z,5.5
2019-01-13T02:03:42.356Z,5.6
2019-01-13T02:08:48.705Z,5.7
2019-01-13T02:13:54.584Z,5.1
2019-01-13T02:18:59.518Z,4.9
2019-01-13T02:23:59.716Z,5.2
2019-01-13T02:29:05.163Z,5.7
2019-01-13T02:34:10.401Z,4.7
2019-01-13T02:39:16.008Z,3.8
2019-01-13T02:44:21.881Z,5.6
2019-01-13T02:49:27.256Z,5
2019-01-13T02:54:33.435Z,4.3
2019-01-13T02:59:38.983Z,4.2
2019-01-13T03:04:44.131Z,4
2019-01-13T03:09:49.305Z,5.2
2019-01-13T03:14:54.516Z,3.8
2019-01-13T03:20:00.119Z,3.8
2019-01-13T03:25:06.761Z,3.8
2019-01-13T03:30:11.778Z,3.2
2019-01-13T03:35:16.857Z,4.1
2019-01-13T03:40:21.994Z,4.5
2019-01-13T03:45:27.582Z,3.6
2019-01-13T03:50:33.914Z,3.6
2019-01-13T03:55:39.404Z,4.6
2019-01-13T04:00:45.128Z,3.2
2019-01-13T04:05:51.676Z,4.2
2019-01-13T04:10:56.731Z,3.8
2019-01-13T04:16:03.073Z,3.4
2019-01-13T04:21:08.333Z,4.3
2019-01-13T04:26:14.500Z,4.5
2019-01-13T04:31:26.308Z,3.4
2019-01-13T04:36:21.990Z,3.3
2019-01-13T04:41:27.344Z,3
2019-01-13T04:46:32.517Z,3.3
2019-01-13T04:51:37.827Z,3.1
2019-01-13T04:56:43.597Z,3.5
2019-01-13T05:01:48.788Z,3.1
2019-01-13T05:06:54.702Z,2.7
2019-01-13T05:12:00.565Z,3.1
2019-01-13T05:17:06.720Z,2.8
2019-01-13T05:22:11.666Z,2.9
2019-01-13T05:27:17.536Z,2.4
2019-01-13T05:32:22.890Z,2.5
2019-01-13T05:37:28.701Z,2.1
2019-01-13T05:42:34.461Z,2.3
2019-01-13T05:47:40.251Z,2.4
2019-01-13T05:52:45.598Z,2.3
2019-01-13T05:57:50.756Z,2.5
2019-01-13T06:02:55.916Z,2.6
2019-01-13T06:08:01.340Z,8.9
2019-01-13T06:13:06.975Z,13.9
2019-01-13T06:18:12.903Z,12.9
2019-01-13T06:23:18.413Z,10.5
2019-01-13T06:28:23.210Z,290.6
2019-01-13T06:33:28.293Z,335.4
2019-01-13T06:38:33.897Z,214.1
2019-01-13T06:43:39.120Z,145.9
2019-01-13T06:48:43.782Z,175.6
2019-01-13T06:53:48.897Z,169.3
2019-01-13T06:58:54.299Z,136.9
2019-01-13T07:03:57.236Z,123
2019-01-13T07:09:02.966Z,116.1
2019-01-13T07:14:08.724Z,90.6
2019-01-13T07:19:08.906Z,82.1
2019-01-13T07:24:14.236Z,93.7
2019-01-13T07:29:20.811Z,147.6
2019-01-13T07:34:26.687Z,225.7
2019-01-13T07:39:31.058Z,179.5
2019-01-13T07:44:36.904Z,188.9
2019-01-13T07:49:43.161Z,145
2019-01-13T07:54:48.287Z,146.7
2019-01-13T07:59:55.864Z,141.8
2019-01-13T08:05:00.950Z,124.5
2019-01-13T08:10:07.086Z,121.3
2019-01-13T08:15:12.628Z,105.7
2019-01-13T08:20:18.343Z,89.6
2019-01-13T08:25:23.336Z,62.5
2019-01-13T08:30:28.725Z,43.5
2019-01-13T08:35:33.648Z,33.2
2019-01-13T08:40:38.969Z,33.4
2019-01-13T08:45:50.043Z,27.8
2019-01-13T08:50:45.665Z,23.5
2019-01-13T08:55:51.026Z,28.5
2019-01-13T09:00:56.741Z,28.8
2019-01-13T09:06:02.201Z,33.2
2019-01-13T09:11:07.822Z,27.5
2019-01-13T09:16:13.160Z,29.1
2019-01-13T09:21:17.921Z,24.6
2019-01-13T09:26:22.905Z,24.3
2019-01-13T09:31:28.233Z,22.9
2019-01-13T09:36:32.175Z,26.1
2019-01-13T09:41:37.919Z,26.4
2019-01-13T09:46:44.163Z,22.7
2019-01-13T09:51:49.724Z,22.6
2019-01-13T09:56:55.299Z,23.6
2019-01-13T10:02:01.163Z,20.3
2019-01-13T10:07:06.943Z,24.5
2019-01-13T10:12:12.043Z,16.6
2019-01-13T10:17:17.658Z,11.8
2019-01-13T10:22:23.357Z,12
2019-01-13T10:27:29.271Z,7.3
2019-01-13T10:32:35.279Z,10.9
2019-01-13T10:37:41.240Z,12.6
2019-01-13T10:42:46.358Z,9.7
2019-01-13T10:47:51.556Z,11
2019-01-13T10:52:57.423Z,10.9
2019-01-13T10:58:03.361Z,8.8
2019-01-13T11:03:08.450Z,6.1
2019-01-13T11:08:13.816Z,6.6
2019-01-13T11:13:19.661Z,7.5
2019-01-13T11:18:25.395Z,7.9
2019-01-13T11:23:29.946Z,4.5
2019-01-13T11:28:34.523Z,6.6
2019-01-13T11:33:40.288Z,8.8
2019-01-13T11:38:46.591Z,10.1
2019-01-13T11:43:52.022Z,5.5
2019-01-13T11:48:58.110Z,4.7
2019-01-13T11:54:04.267Z,3.6
2019-01-13T11:59:09.713Z,3.9
2019-01-13T12:04:15.820Z,4.2
2019-01-13T12:09:21.319Z,3.2
2019-01-13T12:14:26.425Z,2.6
2019-01-13T12:19:32.655Z,4.5
2019-01-13T12:24:38.368Z,2.4
2019-01-13T12:29:43.721Z,2.6
2019-01-13T12:34:48.762Z,2.7
2019-01-13T12:39:53.961Z,1.7
2019-01-13T12:44:59.293Z,3.8
2019-01-13T12:50:05.023Z,2.7
2019-01-13T12:55:10.219Z,2.2
2019-01-13T13:00:15.422Z,3.9
2019-01-13T13:05:20.551Z,3.2
2019-01-13T13:10:25.612Z,3.7
2019-01-13T13:15:31.667Z,2.7
2019-01-13T13:20:36.768Z,3.2
2019-01-13T13:25:42.340Z,7.2
2019-01-13T13:30:47.442Z,4.2
2019-01-13T13:35:52.490Z,4.4
2019-01-13T13:40:57.928Z,5.1
2019-01-13T13:46:02.991Z,5.3
2019-01-13T13:51:08.060Z,7.4
2019-01-13T13:56:13.266Z,5.4
2019-01-13T14:01:18.378Z,2.8
2019-01-13T14:06:23.951Z,4
2019-01-13T14:11:28.927Z,3.1
2019-01-13T14:16:34.498Z,2.6
2019-01-13T14:21:39.700Z,3.8
2019-01-13T14:26:44.891Z,8.2
2019-01-13T14:31:50.276Z,6.4
2019-01-13T14:36:56.572Z,5.3
2019-01-13T14:42:01.585Z,2.9
2019-01-13T14:47:06.181Z,2.3
2019-01-13T14:52:11.957Z,4.9
2019-01-13T14:57:17.925Z,4.1
2019-01-13T15:02:22.998Z,5.7
2019-01-13T15:07:27.562Z,5.4
2019-01-13T15:12:33.417Z,3.3
2019-01-13T15:17:38.632Z,3
2019-01-13T15:22:44.213Z,8.3
2019-01-13T15:25:06.824Z,9.6
2019-01-13T15:30:12.690Z,10.9
2019-01-13T15:35:18.235Z,17.5
2019-01-13T15:40:23.625Z,12.5
2019-01-13T15:45:28.858Z,7.1
2019-01-13T15:50:34.464Z,7.7
2019-01-13T15:55:39.912Z,12.5
2019-01-13T16:00:45.747Z,13.7
2019-01-13T16:05:51.012Z,10.4
2019-01-13T16:10:56.742Z,7.2
2019-01-13T16:16:02.923Z,10.4
2019-01-13T16:21:08.616Z,5.1
2019-01-13T16:26:14.583Z,11.5
2019-01-13T16:31:20.260Z,12.2
2019-01-13T16:36:26.259Z,12
2019-01-13T16:41:32.044Z,11.1
2019-01-13T16:46:43.348Z,10.7
2019-01-13T16:51:39.400Z,9.5
2019-01-13T16:56:44.957Z,8.7
2019-01-13T17:01:50.873Z,9.8
2019-01-13T17:06:56.361Z,9.1
2019-01-13T17:12:02.047Z,5
2019-01-13T17:17:07.124Z,3.8
2019-01-13T17:22:13.238Z,6.5
2019-01-13T17:27:17.250Z,4
2019-01-13T17:32:22.405Z,5.1
2019-01-13T17:37:27.787Z,5.7
2019-01-13T17:42:33.653Z,9.5
2019-01-13T17:47:38.628Z,9.6
2019-01-13T17:52:42.989Z,10
2019-01-13T17:57:48.087Z,9.5
2019-01-13T18:02:53.281Z,8.9
2019-01-13T18:08:02.591Z,12.7
2019-01-13T18:13:08.129Z,15
2019-01-13T18:18:13.106Z,14.7
2019-01-13T18:23:18.987Z,12
2019-01-13T18:28:24.269Z,12
2019-01-13T18:33:30.320Z,14.1
2019-01-13T18:38:38.545Z,16.1
2019-01-13T18:43:43.802Z,12.1
2019-01-13T18:48:51.594Z,12.3
2019-01-13T18:53:57.794Z,16.4
2019-01-13T18:59:01.766Z,10.5
2019-01-13T19:04:08.058Z,11
2019-01-13T19:09:13.118Z,9.3
2019-01-13T19:14:21.546Z,12.7
2019-01-13T19:19:27.624Z,8.9
2019-01-13T19:24:32.942Z,7.1
2019-01-13T19:29:38.640Z,9.1
2019-01-13T19:34:44.638Z,9
2019-01-13T19:39:48.502Z,7.3
2019-01-13T19:44:54.105Z,7.5
2019-01-13T19:49:58.155Z,6.4
2019-01-13T19:55:04.239Z,10.9
2019-01-13T20:00:09.256Z,8.9
2019-01-13T20:05:15.068Z,7
2019-01-13T20:10:20.886Z,6.3
2019-01-13T20:15:26.731Z,6.6
2019-01-13T20:20:32.111Z,7.9
2019-01-13T20:25:37.976Z,7.2
2019-01-13T20:30:43.609Z,7.7
2019-01-13T20:35:49.340Z,12.7
2019-01-13T20:40:57.410Z,9.9
2019-01-13T20:46:03.533Z,10.1
2019-01-13T20:51:09.348Z,8
2019-01-13T20:56:15.385Z,9
2019-01-13T21:01:20.346Z,8.6
2019-01-13T21:06:26.245Z,10.2
2019-01-13T21:11:33.132Z,8.7
2019-01-13T21:16:39.267Z,9.8
2019-01-13T21:21:44.744Z,7.1
2019-01-13T21:26:50.225Z,7.4
2019-01-13T21:31:55.861Z,6.7
2019-01-13T21:37:01.085Z,6.8
2019-01-13T21:42:06.658Z,7.4
2019-01-13T21:47:12.860Z,8.1
2019-01-13T21:52:18.576Z,5.3
2019-01-13T21:57:24.654Z,5.5
2019-01-13T22:02:30.177Z,8.3
2019-01-13T22:07:36.069Z,5
2019-01-13T22:12:42.201Z,4.6
2019-01-13T22:17:48.247Z,4.6
2019-01-13T22:22:53.368Z,4.8
2019-01-13T22:28:45.279Z,4.9
2019-01-13T22:33:50.843Z,4.9
2019-01-13T22:38:56.009Z,5.1
2019-01-13T22:44:01.926Z,4.1
2019-01-13T22:49:07.064Z,4.3
2019-01-13T22:54:12.794Z,4
2019-01-13T22:59:18.140Z,4.3
2019-01-13T23:04:23.235Z,3.7
2019-01-13T23:09:28.365Z,3.8
2019-01-13T23:14:33.371Z,3.1
2019-01-13T23:19:38.587Z,3.8
2019-01-13T23:24:43.879Z,3.5
2019-01-13T23:29:49.871Z,4.4
2019-01-13T23:34:55.172Z,3.9
2019-01-13T23:40:00.271Z,2.5
2019-01-13T23:45:06.043Z,3.2
2019-01-13T23:50:11.144Z,4
2019-01-13T23:55:16.343Z,5.1
